Time;durP1;ratioP1;P1;durP2;ratioP2;P2;SDS_P1;SDS_P2;PMS_P1;PMS_P2;Temp;Humidity;BMP_temperature;BMP_pressure;BME280_temperature;BME280_humidity;BME280_pressure;Samples;Min_cycle;Max_cycle;Signal;HPM_P1;HPM_P2
2023/01/09 00:01:33;;;;;;;11.70;5.20;;;;;;;-4.26;54.18;101531.97;104981;1264;72222;-67
2023/01/09 00:04:00;;;;;;;16.40;6.90;;;;;;;-4.24;54.01;101532.48;105512;1262;74792;-70
2023/01/09 00:06:28;;;;;;;12.10;6.30;;;;;;;-4.23;53.94;101535.56;105499;1265;62178;-69
2023/01/09 00:08:55;;;;;;;14.90;5.50;;;;;;;-4.21;54.07;101538.64;105439;1264;62336;-69
2023/01/09 00:11:22;;;;;;;17.50;5.90;;;;;;;-4.19;54.11;101539.33;105468;1264;74098;-68
2023/01/09 00:13:49;;;;;;;15.30;7.90;;;;;;;-4.16;54.15;101548.59;105445;1261;72710;-68
2023/01/09 00:16:16;;;;;;;15.20;5.10;;;;;;;-4.15;53.99;101551.85;105450;1265;73608;-69
2023/01/09 00:18:43;;;;;;;16.00;6.90;;;;;;;-4.13;53.94;101556.30;105406;1262;61437;-69
2023/01/09 00:21:11;;;;;;;15.90;5.30;;;;;;;-4.12;53.85;101553.73;105479;1261;61134;-68
2023/01/09 00:23:38;;;;;;;16.20;5.40;;;;;;;-4.12;53.81;101542.77;105511;1264;75123;-67
2023/01/09 00:26:05;;;;;;;12.20;5.60;;;;;;;-4.10;53.77;101543.61;105493;1262;71168;-70
2023/01/09 00:28:33;;;;;;;11.80;5.30;;;;;;;-4.07;53.76;101544.64;105424;1262;73785;-68
2023/01/09 00:31:00;;;;;;;11.30;3.90;;;;;;;-4.07;53.71;101551.50;105427;1262;62424;-68
2023/01/09 00:33:29;;;;;;;13.60;5.60;;;;;;;-4.07;53.63;101544.64;105444;1261;61087;-68
2023/01/09 00:35:56;;;;;;;16.00;5.50;;;;;;;-4.05;53.75;101544.13;105365;1261;74123;-67
2023/01/09 00:38:23;;;;;;;15.20;6.20;;;;;;;-4.01;53.75;101542.05;105407;1262;72619;-74
2023/01/09 00:40:50;;;;;;;15.00;5.80;;;;;;;-3.98;53.65;101538.81;105218;1262;74821;-68
2023/01/09 00:43:17;;;;;;;14.60;5.20;;;;;;;-3.97;53.54;101538.64;105347;1262;62668;-68
2023/01/09 00:45:44;;;;;;;11.80;4.90;;;;;;;-3.96;53.32;101542.74;105161;1265;61576;-68
2023/01/09 00:48:13;;;;;;;10.00;4.50;;;;;;;-3.96;53.28;101536.75;105195;1267;73989;-68
2023/01/09 00:50:40;;;;;;;18.90;6.40;;;;;;;-3.95;53.35;101529.20;105240;1264;71372;-68
2023/01/09 00:53:18;;;;;;;10.10;5.10;;;;;;;-3.94;53.25;101528.34;105185;1268;73530;-68
2023/01/09 00:55:45;;;;;;;13.80;5.20;;;;;;;-3.92;53.30;101524.06;105232;1262;62480;-68
2023/01/09 00:58:12;;;;;;;14.60;6.40;;;;;;;-3.90;53.38;101517.70;105170;1264;61151;-67
2023/01/09 01:00:39;;;;;;;10.00;3.90;;;;;;;-3.88;53.44;101514.09;105113;1264;75178;-68
2023/01/09 01:03:06;;;;;;;16.20;5.10;;;;;;;-3.85;53.27;101507.23;105177;1267;71435;-67
2023/01/09 01:08:19;;;;;;;16.90;6.50;;;;;;;-3.82;53.09;101495.73;105395;1262;60111;-68
2023/01/09 01:10:46;;;;;;;10.10;4.90;;;;;;;-3.82;53.15;101482.71;105453;1262;61250;-68
2023/01/09 01:13:13;;;;;;;16.70;5.50;;;;;;;-3.81;53.14;101478.08;105451;1260;74233;-68
2023/01/09 01:15:41;;;;;;;13.70;5.50;;;;;;;-3.80;52.95;101475.50;105391;1267;72241;-69
2023/01/09 01:18:10;;;;;;;14.20;6.30;;;;;;;-3.81;52.82;101473.45;105440;1262;74794;-68
2023/01/09 01:20:39;;;;;;;11.30;4.50;;;;;;;-3.81;52.97;101468.65;105407;1264;61439;-72
2023/01/09 01:23:06;;;;;;;12.00;5.60;;;;;;;-3.80;52.95;101464.86;105487;1263;62441;-68
2023/01/09 01:25:38;;;;;;;13.10;5.20;;;;;;;-3.77;52.78;101466.59;105443;1265;74805;-67
2023/01/09 01:28:05;;;;;;;14.00;5.10;;;;;;;-3.74;52.72;101463.30;105534;1261;72388;-70
2023/01/09 01:30:32;;;;;;;14.30;5.70;;;;;;;-3.73;52.67;101454.58;105357;1260;74864;-69
2023/01/09 01:32:59;;;;;;;11.50;4.00;;;;;;;-3.71;52.63;101454.55;105416;1262;61580;-68
2023/01/09 01:35:26;;;;;;;12.40;6.90;;;;;;;-3.69;52.63;101454.37;105394;1265;63448;-67
2023/01/09 01:37:53;;;;;;;14.60;5.60;;;;;;;-3.68;52.40;101450.42;105464;1262;74069;-68
2023/01/09 01:40:20;;;;;;;14.50;6.10;;;;;;;-3.68;52.38;101447.86;105424;1263;72192;-70
2023/01/09 01:42:49;;;;;;;11.60;5.20;;;;;;;-3.67;52.37;101443.05;105392;1262;73398;-68
2023/01/09 01:45:18;;;;;;;11.10;4.20;;;;;;;-3.67;52.37;101434.81;105365;1261;62338;-68
2023/01/09 01:47:48;;;;;;;12.90;5.30;;;;;;;-3.67;52.45;101426.94;105449;1262;62342;-69
2023/01/09 01:50:30;;;;;;;13.20;6.70;;;;;;;-3.66;52.40;101420.23;105458;1264;75211;-68
2023/01/09 01:53:18;;;;;;;12.30;4.80;;;;;;;-3.65;52.19;101420.91;105459;1265;71388;-69
2023/01/09 01:56:00;;;;;;;11.10;4.40;;;;;;;-3.66;52.02;101417.32;105400;1262;74789;-72
2023/01/09 01:58:27;;;;;;;14.20;5.90;;;;;;;-3.67;52.07;101418.70;105476;1265;60439;-68
2023/01/09 02:00:54;;;;;;;9.50;3.10;;;;;;;-3.67;52.06;101420.92;105443;1265;61487;-72
2023/01/09 02:03:24;;;;;;;12.00;4.10;;;;;;;-3.67;51.88;101417.15;105448;1267;75206;-69
2023/01/09 02:05:51;;;;;;;13.00;5.10;;;;;;;-3.68;51.91;101421.96;105368;1265;71139;-68
2023/01/09 02:08:18;;;;;;;15.30;4.20;;;;;;;-3.67;51.93;101416.81;105473;1261;73736;-68
2023/01/09 02:10:45;;;;;;;12.00;4.80;;;;;;;-3.67;51.96;101413.73;105453;1265;61404;-67
2023/01/09 02:13:12;;;;;;;14.60;4.20;;;;;;;-3.69;51.99;101406.19;105391;1262;61129;-70
2023/01/09 02:15:58;;;;;;;11.50;5.30;;;;;;;-3.68;52.08;101408.41;105412;1262;73795;-67
2023/01/09 02:18:34;;;;;;;11.30;4.80;;;;;;;-3.65;52.29;101402.73;105460;1262;72564;-66
2023/01/09 02:21:39;;;;;;;16.60;3.50;;;;;;;-3.65;52.49;101404.61;105416;1265;74730;-67
2023/01/09 02:24:21;;;;;;;11.80;4.80;;;;;;;-3.67;52.52;101401.04;105145;1265;59861;-69
2023/01/09 02:27:20;;;;;;;10.30;5.40;;;;;;;-3.70;52.62;101402.92;105406;1262;61514;-67
2023/01/09 02:30:24;;;;;;;14.80;4.50;;;;;;;-3.69;52.78;101398.64;105177;1267;74084;-69
2023/01/09 02:32:51;;;;;;;9.60;3.50;;;;;;;-3.69;53.16;101390.74;105424;1267;72269;-68
2023/01/09 02:35:40;;;;;;;16.30;4.30;;;;;;;-3.70;53.34;101390.92;105422;1264;73506;-68
2023/01/09 02:38:23;;;;;;;14.70;5.60;;;;;;;-3.71;53.65;101388.88;105436;1265;61343;-68
2023/01/09 02:40:51;;;;;;;14.00;5.30;;;;;;;-3.70;53.91;101387.33;105446;1262;60292;-67
2023/01/09 02:43:18;;;;;;;13.70;3.90;;;;;;;-3.71;54.24;101385.27;105423;1261;74040;-70
2023/01/09 02:45:45;;;;;;;13.90;4.30;;;;;;;-3.72;54.88;101387.68;105430;1266;70709;-67
2023/01/09 02:48:12;;;;;;;16.30;4.20;;;;;;;-3.75;55.20;101378.77;105477;1265;73837;-67
2023/01/09 02:50:52;;;;;;;9.70;3.60;;;;;;;-3.78;55.47;101371.25;105446;1261;62507;-67
2023/01/09 02:53:38;;;;;;;8.50;3.20;;;;;;;-3.80;55.70;101369.54;105306;1262;62244;-65
2023/01/09 02:56:40;;;;;;;6.40;2.90;;;;;;;-3.80;56.03;101371.77;105435;1265;74930;-68
2023/01/09 02:59:18;;;;;;;8.40;4.30;;;;;;;-3.80;56.37;101366.97;105460;1265;71333;-69
2023/01/09 03:02:14;;;;;;;9.00;3.70;;;;;;;-3.80;56.61;101364.91;105377;1265;74015;-69
2023/01/09 03:04:41;;;;;;;;;;;;;;;-3.80;56.81;101361.82;105425;1265;61460;-72
2023/01/09 03:07:21;;;;;;;8.60;4.60;;;;;;;-3.81;56.96;101358.41;105460;1262;61216;-71
2023/01/09 03:09:49;;;;;;;14.50;4.00;;;;;;;-3.83;57.19;101363.55;105404;1267;75986;-67
2023/01/09 03:12:17;;;;;;;11.20;3.00;;;;;;;-3.77;57.72;101361.82;105432;1262;71510;-68
2023/01/09 03:14:47;;;;;;;7.10;2.90;;;;;;;-3.64;58.10;101360.72;105350;1267;73561;-70
2023/01/09 03:17:24;;;;;;;8.80;3.30;;;;;;;-3.50;58.10;101362.69;105422;1267;62250;-78
2023/01/09 03:19:52;;;;;;;9.50;2.70;;;;;;;-3.39;57.92;101360.57;105527;1265;61219;-68
2023/01/09 03:22:19;;;;;;;12.20;3.20;;;;;;;-3.29;57.93;101367.02;105431;1267;75905;-70
2023/01/09 03:24:46;;;;;;;10.10;3.80;;;;;;;-3.19;58.03;101360.08;105520;1263;72226;-69
2023/01/09 03:27:13;;;;;;;12.00;3.60;;;;;;;-3.12;58.07;101358.48;105396;1262;73730;-68
2023/01/09 03:29:40;;;;;;;17.00;5.00;;;;;;;-3.09;58.24;101356.57;105453;1266;61975;-69
2023/01/09 03:32:07;;;;;;;11.60;4.50;;;;;;;-3.09;58.46;101349.00;105475;1260;61330;-67
2023/01/09 03:34:34;;;;;;;16.20;5.40;;;;;;;-3.12;58.52;101347.68;105433;1262;75947;-73
2023/01/09 03:37:03;;;;;;;11.20;3.90;;;;;;;-3.16;58.59;101348.38;105512;1265;72427;-67
2023/01/09 03:39:31;;;;;;;11.60;3.90;;;;;;;-3.22;58.90;101343.11;105401;1262;74550;-72
2023/01/09 03:41:58;;;;;;;11.10;4.50;;;;;;;-3.28;59.17;101339.04;105439;1262;62541;-68
2023/01/09 03:44:25;;;;;;;9.60;4.10;;;;;;;-3.37;59.38;101340.30;105418;1262;62638;-67
2023/01/09 03:46:52;;;;;;;14.70;4.70;;;;;;;-3.43;59.63;101336.73;105458;1265;76371;-66
2023/01/09 03:49:20;;;;;;;16.40;5.80;;;;;;;-3.48;59.88;101337.98;105412;1266;71366;-68
2023/01/09 03:51:47;;;;;;;9.50;3.80;;;;;;;-3.55;60.20;101334.08;105406;1261;74736;-67
2023/01/09 03:54:14;;;;;;;6.60;2.80;;;;;;;-3.61;60.48;101335.82;105455;1264;61780;-67
2023/01/09 03:56:41;;;;;;;6.20;2.80;;;;;;;-3.66;60.74;101332.25;105440;1262;61224;-68
2023/01/09 03:59:08;;;;;;;8.30;3.40;;;;;;;-3.69;60.96;101335.35;105421;1267;75720;-68
2023/01/09 04:01:35;;;;;;;9.80;3.50;;;;;;;-3.72;61.27;101330.77;105457;1267;71683;-69
2023/01/09 04:04:03;;;;;;;7.60;2.90;;;;;;;-3.75;61.44;101331.46;105392;1266;74803;-68
2023/01/09 04:06:30;;;;;;;8.00;1.90;;;;;;;-3.77;61.63;101330.43;105413;1266;61446;-68
2023/01/09 04:08:57;;;;;;;7.00;2.10;;;;;;;-3.80;61.85;101326.34;105422;1263;61378;-71
2023/01/09 04:11:24;;;;;;;8.90;2.60;;;;;;;-3.73;61.79;101325.96;105365;1265;74454;-67
2023/01/09 04:13:51;;;;;;;9.30;3.70;;;;;;;-3.61;61.78;101324.84;105410;1264;72446;-67
2023/01/09 04:16:18;;;;;;;11.70;3.20;;;;;;;-3.49;61.84;101321.69;105352;1262;74873;-67
2023/01/09 04:18:45;;;;;;;8.60;2.90;;;;;;;-3.40;61.73;101316.83;105422;1262;62960;-67
2023/01/09 04:21:12;;;;;;;8.60;2.20;;;;;;;-3.31;61.66;101312.47;105417;1265;62155;-70
2023/01/09 04:23:39;;;;;;;6.20;2.80;;;;;;;-3.26;61.85;101306.94;105443;1262;75255;-68
2023/01/09 04:26:06;;;;;;;5.30;2.10;;;;;;;-3.22;61.73;101304.48;105437;1262;72927;-69
2023/01/09 04:28:33;;;;;;;11.50;3.40;;;;;;;-3.22;61.76;101307.58;105433;1263;74835;-67
2023/01/09 04:31:01;;;;;;;8.50;3.20;;;;;;;-3.27;62.36;101308.65;105420;1261;60462;-70
2023/01/09 04:33:28;;;;;;;8.10;3.40;;;;;;;-3.33;62.97;101304.24;105427;1264;62134;-75
2023/01/09 04:35:55;;;;;;;9.20;3.40;;;;;;;-3.40;63.17;101300.34;105412;1264;75627;-70
2023/01/09 04:38:22;;;;;;;9.00;3.30;;;;;;;-3.46;63.22;101299.02;105450;1264;71188;-71
2023/01/09 04:40:49;;;;;;;13.90;3.60;;;;;;;-3.50;63.16;101296.64;105187;1266;74129;-69
2023/01/09 04:43:16;;;;;;;6.30;2.20;;;;;;;-3.55;63.19;101289.13;105402;1266;61433;-68
2023/01/09 04:45:43;;;;;;;9.20;3.60;;;;;;;-3.60;63.26;101287.80;105400;1261;61335;-69
2023/01/09 04:48:10;;;;;;;5.90;2.40;;;;;;;-3.64;63.45;101284.40;105430;1265;75721;-68
2023/01/09 04:50:37;;;;;;;8.60;2.80;;;;;;;-3.67;63.70;101278.42;105363;1266;72307;-69
2023/01/09 04:53:05;;;;;;;10.90;3.60;;;;;;;-3.70;63.91;101285.81;105483;1264;74742;-67
2023/01/09 04:55:32;;;;;;;7.90;2.60;;;;;;;-3.73;64.03;101284.98;105411;1267;62455;-67
2023/01/09 04:57:59;;;;;;;10.30;3.90;;;;;;;-3.66;63.97;101284.07;105415;1265;61144;-67
2023/01/09 05:00:26;;;;;;;6.80;2.10;;;;;;;-3.54;63.88;101285.52;105411;1268;75857;-65
2023/01/09 05:02:54;;;;;;;9.90;3.40;;;;;;;-3.42;63.76;101278.41;105432;1266;74015;-70
2023/01/09 05:05:21;;;;;;;8.50;2.50;;;;;;;-3.31;63.36;101281.05;105431;1262;74798;-68
2023/01/09 05:07:48;;;;;;;8.20;2.30;;;;;;;-3.25;63.15;101279.64;105483;1260;61678;-68
2023/01/09 05:10:15;;;;;;;6.10;2.40;;;;;;;-3.24;63.00;101281.85;105436;1262;61577;-72
2023/01/09 05:12:42;;;;;;;8.50;2.80;;;;;;;-3.22;62.72;101275.32;105414;1261;74743;-80
2023/01/09 05:15:09;;;;;;;6.10;2.10;;;;;;;-3.23;62.57;101279.97;105418;1266;72512;-66
2023/01/09 05:17:36;;;;;;;6.70;2.90;;;;;;;-3.25;62.57;101282.38;105417;1263;73699;-67
2023/01/09 05:20:03;;;;;;;10.10;3.20;;;;;;;-3.28;62.46;101280.35;105354;1261;62499;-66
2023/01/09 05:22:30;;;;;;;8.20;3.00;;;;;;;-3.31;62.34;101277.80;105510;1265;63097;-67
2023/01/09 05:24:57;;;;;;;9.40;2.90;;;;;;;-3.34;62.34;101276.45;105403;1260;75391;-67
2023/01/09 05:27:26;;;;;;;7.70;2.60;;;;;;;-3.39;62.27;101266.36;105506;1264;70975;-68
2023/01/09 05:29:53;;;;;;;8.60;3.00;;;;;;;-3.41;62.32;101265.71;105378;1267;73485;-67
2023/01/09 05:32:20;;;;;;;9.10;2.80;;;;;;;-3.43;62.35;101266.92;105417;1266;61163;-68
2023/01/09 05:34:47;;;;;;;9.10;4.30;;;;;;;-3.44;62.39;101264.69;105447;1264;62382;-67
2023/01/09 05:37:14;;;;;;;15.30;4.80;;;;;;;-3.46;62.47;101256.47;105379;1262;75915;-67
2023/01/09 05:39:41;;;;;;;9.30;2.70;;;;;;;-3.47;62.50;101253.56;105374;1267;72724;-67
2023/01/09 05:42:08;;;;;;;6.40;3.00;;;;;;;-3.48;62.57;101253.07;105448;1267;75183;-67
2023/01/09 05:44:35;;;;;;;5.90;2.50;;;;;;;-3.49;62.61;101251.19;105420;1265;61437;-67
2023/01/09 05:47:02;;;;;;;8.70;3.10;;;;;;;-3.43;62.54;101253.02;105444;1264;61110;-74
2023/01/09 05:49:29;;;;;;;6.80;2.90;;;;;;;-3.31;62.35;101252.75;105355;1267;75894;-67
2023/01/09 05:51:56;;;;;;;7.40;2.90;;;;;;;-3.18;62.25;101252.28;105452;1263;71567;-67
2023/01/09 05:54:23;;;;;;;6.40;2.60;;;;;;;-3.04;62.16;101249.42;105412;1264;74870;-69
2023/01/09 05:56:50;;;;;;;9.00;3.10;;;;;;;-2.94;62.05;101248.80;105392;1265;61708;-69
2023/01/09 05:59:17;;;;;;;11.70;3.00;;;;;;;-2.87;61.99;101250.95;105421;1262;61329;-73
2023/01/09 06:01:44;;;;;;;12.20;2.80;;;;;;;-2.83;61.85;101251.59;105498;1274;75992;-69
2023/01/09 06:04:11;;;;;;;6.40;2.40;;;;;;;-2.82;61.61;101257.42;105491;1264;71458;-68
2023/01/09 06:06:39;;;;;;;8.70;3.40;;;;;;;-2.81;61.48;101262.91;105417;1261;75055;-67
2023/01/09 06:09:07;;;;;;;10.60;3.00;;;;;;;-2.83;61.58;101263.45;105369;1264;61123;-66
2023/01/09 06:11:34;;;;;;;6.70;2.60;;;;;;;-2.85;61.62;101260.21;105513;1260;62507;-69
2023/01/09 06:14:01;;;;;;;9.50;3.50;;;;;;;-2.88;61.56;101265.73;105454;1265;75935;-67
2023/01/09 06:16:28;;;;;;;10.70;4.50;;;;;;;-2.90;61.69;101264.05;105424;1261;72376;-69
2023/01/09 06:18:55;;;;;;;8.20;3.90;;;;;;;-2.93;61.71;101260.98;105428;1264;73888;-69
2023/01/09 06:21:22;;;;;;;10.30;4.50;;;;;;;-2.98;61.70;101263.09;105425;1265;61401;-68
2023/01/09 06:23:50;;;;;;;9.20;3.10;;;;;;;-3.02;61.94;101260.89;105418;1260;61443;-67
2023/01/09 06:26:17;;;;;;;8.70;2.80;;;;;;;-3.04;62.03;101260.23;105311;1267;74527;-67
2023/01/09 06:28:44;;;;;;;7.90;3.10;;;;;;;-3.08;62.05;101252.02;105406;1260;71594;-73
2023/01/09 06:31:12;;;;;;;12.30;3.20;;;;;;;-3.11;62.15;101253.94;105429;1265;74966;-68
2023/01/09 06:33:39;;;;;;;20.50;5.40;;;;;;;-3.13;62.34;101250.19;105654;1265;61219;-69
2023/01/09 06:36:06;;;;;;;8.80;3.90;;;;;;;-3.09;62.32;101249.64;105436;1267;61390;-68
2023/01/09 06:38:33;;;;;;;7.40;2.30;;;;;;;-2.96;62.25;101253.27;105324;1267;75944;-68
2023/01/09 06:41:02;;;;;;;9.90;3.10;;;;;;;-2.84;62.17;101249.38;105421;1261;72188;-68
2023/01/09 06:43:29;;;;;;;8.40;2.80;;;;;;;-2.73;62.22;101247.37;105412;1260;74753;-67
2023/01/09 06:45:56;;;;;;;6.30;2.30;;;;;;;-2.67;62.14;101241.80;105425;1264;61675;-78
2023/01/09 06:48:26;;;;;;;9.80;4.10;;;;;;;-2.64;62.21;101244.69;105361;1261;62413;-76
2023/01/09 06:50:53;;;;;;;7.90;2.40;;;;;;;-2.62;62.06;101249.66;105420;1264;74967;-77
2023/01/09 06:53:20;;;;;;;7.70;3.80;;;;;;;-2.65;62.09;101238.17;105344;1267;71459;-69
2023/01/09 06:55:47;;;;;;;9.20;2.20;;;;;;;-2.67;62.04;101240.77;105258;1265;74863;-74
2023/01/09 06:58:14;;;;;;;10.50;3.40;;;;;;;-2.70;62.09;101234.63;105441;1264;60924;-68
2023/01/09 07:00:41;;;;;;;10.50;3.50;;;;;;;-2.72;62.21;101238.59;105466;1267;61467;-67
2023/01/09 07:03:09;;;;;;;7.30;3.40;;;;;;;-2.74;62.28;101243.43;105449;1260;75223;-66
2023/01/09 07:05:40;;;;;;;6.70;2.40;;;;;;;-2.79;62.46;101242.79;105430;1265;72382;-66
2023/01/09 07:08:08;;;;;;;10.20;4.10;;;;;;;-2.82;62.61;101241.45;105415;1260;75109;-71
2023/01/09 07:10:35;;;;;;;15.70;5.30;;;;;;;-2.84;62.77;101239.58;105377;1266;61691;-70
2023/01/09 07:13:02;;;;;;;7.30;3.30;;;;;;;-2.86;62.91;101233.59;105392;1260;61233;-68
2023/01/09 07:15:29;;;;;;;10.90;4.00;;;;;;;-2.87;63.08;101239.11;105357;1265;74783;-75
2023/01/09 07:17:56;;;;;;;12.90;4.20;;;;;;;-2.86;63.13;101241.34;105401;1267;71802;-75
2023/01/09 07:20:23;;;;;;;6.70;2.40;;;;;;;-2.78;63.16;101240.73;105407;1261;73374;-72
2023/01/09 07:22:50;;;;;;;9.80;3.60;;;;;;;-2.65;63.03;101236.97;105415;1261;63580;-75
2023/01/09 07:25:17;;;;;;;13.80;5.20;;;;;;;-2.53;63.00;101227.73;105503;1265;62710;-67
2023/01/09 07:27:44;;;;;;;7.80;4.40;;;;;;;-2.43;62.87;101222.79;105440;1260;74776;-68
2023/01/09 07:30:12;;;;;;;7.50;3.80;;;;;;;-2.38;62.99;101225.66;105394;1261;72147;-67
2023/01/09 07:32:39;;;;;;;8.90;3.70;;;;;;;-2.36;63.01;101223.23;105430;1267;74579;-68
2023/01/09 07:35:08;;;;;;;10.50;2.90;;;;;;;-2.35;63.11;101226.47;105197;1269;60523;-67
2023/01/09 07:37:35;;;;;;;14.10;3.60;;;;;;;-2.35;63.16;101228.38;105363;1261;62561;-67
2023/01/09 07:40:02;;;;;;;10.00;3.70;;;;;;;-2.37;63.23;101236.13;105409;1266;75915;-67
2023/01/09 07:42:29;;;;;;;15.10;3.80;;;;;;;-2.39;63.42;101238.73;105411;1264;71112;-70
2023/01/09 07:44:56;;;;;;;11.00;4.30;;;;;;;-2.40;63.71;101239.77;105405;1264;74399;-67
2023/01/09 07:47:23;;;;;;;8.70;3.00;;;;;;;-2.43;63.85;101246.67;105397;1264;61251;-68
2023/01/09 07:49:50;;;;;;;10.40;2.90;;;;;;;-2.46;63.91;101246.55;105405;1260;62296;-70
2023/01/09 07:52:17;;;;;;;11.90;3.40;;;;;;;-2.51;63.99;101247.12;105426;1264;76396;-72
2023/01/09 07:54:44;;;;;;;18.00;5.40;;;;;;;-2.57;64.12;101244.60;105444;1261;71307;-72
2023/01/09 07:57:11;;;;;;;10.40;3.40;;;;;;;-2.61;64.14;101239.34;105253;1269;73861;-67
2023/01/09 07:59:38;;;;;;;13.90;3.80;;;;;;;-2.55;64.10;101238.07;105439;1266;62094;-75
2023/01/09 08:02:05;;;;;;;10.10;3.20;;;;;;;-2.46;64.02;101230.56;105454;1267;62453;-70
2023/01/09 08:04:33;;;;;;;11.80;3.90;;;;;;;-2.36;64.04;101228.36;105451;1260;74823;-69
2023/01/09 08:07:02;;;;;;;11.90;4.40;;;;;;;-2.29;64.04;101230.52;105409;1261;71120;-67
2023/01/09 08:09:29;;;;;;;8.90;3.90;;;;;;;-2.27;64.08;101237.19;105437;1264;74952;-68
2023/01/09 08:11:56;;;;;;;10.60;4.00;;;;;;;-2.25;64.14;101235.09;105432;1264;61052;-70
2023/01/09 08:14:23;;;;;;;10.80;4.10;;;;;;;-2.23;64.01;101232.34;105426;1265;61135;-71
2023/01/09 08:16:50;;;;;;;9.50;3.30;;;;;;;-2.23;64.02;101230.27;105447;1260;75881;-76
2023/01/09 08:19:17;;;;;;;12.90;3.80;;;;;;;-2.24;64.05;101233.02;105431;1261;72033;-68
2023/01/09 08:21:44;;;;;;;12.90;4.70;;;;;;;-2.28;63.95;101232.56;105369;1260;73722;-68
2023/01/09 08:24:11;;;;;;;25.20;4.90;;;;;;;-2.28;63.98;101229.64;105596;1265;62684;-69
2023/01/09 08:26:38;;;;;;;14.40;5.10;;;;;;;-2.28;64.07;101236.00;105293;1261;62439;-68
2023/01/09 08:29:05;;;;;;;14.30;4.20;;;;;;;-2.31;64.02;101230.70;105434;1265;75956;-73
2023/01/09 08:31:32;;;;;;;12.00;4.90;;;;;;;-2.32;63.99;101227.46;105415;1264;71281;-66
2023/01/09 08:33:59;;;;;;;17.20;5.40;;;;;;;-2.35;63.92;101230.41;105419;1260;73707;-69
2023/01/09 08:36:26;;;;;;;10.10;4.20;;;;;;;-2.32;64.05;101232.27;105375;1263;64050;-69
2023/01/09 08:38:53;;;;;;;13.70;4.70;;;;;;;-2.19;63.74;101233.66;105496;1263;62452;-68
2023/01/09 08:47:07;;;;;;;11.50;4.20;;;;;;;-1.94;63.55;101216.27;105420;1264;74701;-67
2023/01/09 08:49:35;;;;;;;9.50;3.70;;;;;;;-1.91;63.38;101210.21;105442;1261;60624;-69
2023/01/09 08:52:03;;;;;;;8.30;3.10;;;;;;;-1.90;63.40;101204.70;105564;1262;61289;-68
2023/01/09 08:54:30;;;;;;;8.20;3.00;;;;;;;-1.89;63.44;101200.89;105534;1260;75144;-66
2023/01/09 08:56:57;;;;;;;9.70;2.80;;;;;;;-1.90;63.31;101193.33;105418;1264;71397;-70
2023/01/09 08:59:24;;;;;;;6.10;3.20;;;;;;;-1.93;63.20;101186.69;105403;1260;74789;-66
2023/01/09 09:01:51;;;;;;;5.60;2.30;;;;;;;-1.98;63.31;101180.39;105463;1260;61519;-78
2023/01/09 09:04:18;;;;;;;11.50;4.50;;;;;;;-2.00;63.36;101177.00;105335;1265;61325;-68
2023/01/09 09:06:46;;;;;;;7.20;3.40;;;;;;;-2.04;63.44;101169.14;105334;1261;75709;-67
2023/01/09 09:09:13;;;;;;;9.40;2.60;;;;;;;-2.08;63.56;101164.02;105438;1261;72525;-67
2023/01/09 09:11:40;;;;;;;6.80;2.40;;;;;;;-2.08;63.80;101158.19;105420;1267;73745;-68
2023/01/09 09:16:52;;;;;;;8.10;3.10;;;;;;;-2.10;64.06;101158.73;105400;1261;61340;-69
2023/01/09 09:19:19;;;;;;;8.10;3.60;;;;;;;-2.00;63.94;101160.13;105458;1264;74869;-68
2023/01/09 09:21:46;;;;;;;6.90;2.50;;;;;;;-1.88;63.86;101161.83;105319;1267;72457;-72
2023/01/09 09:24:14;;;;;;;9.70;2.90;;;;;;;-1.80;63.67;101164.11;105383;1266;73840;-67
2023/01/09 09:26:41;;;;;;;8.80;4.30;;;;;;;-1.70;63.76;101160.17;105420;1266;60584;-69
2023/01/09 09:29:10;;;;;;;7.60;3.80;;;;;;;-1.63;63.86;101157.48;105384;1260;62525;-69
2023/01/09 09:31:37;;;;;;;15.40;3.80;;;;;;;-1.61;63.71;101152.63;105389;1261;75885;-69
2023/01/09 09:34:05;;;;;;;6.70;2.30;;;;;;;-1.60;63.84;101145.38;105436;1262;70540;-74
2023/01/09 09:36:32;;;;;;;15.00;3.50;;;;;;;-1.60;63.94;101139.02;105489;1261;73723;-72
2023/01/09 09:39:01;;;;;;;8.90;3.90;;;;;;;-1.59;63.99;101135.20;105401;1260;61992;-68
2023/01/09 09:44:53;;;;;;;15.50;3.90;;;;;;;-1.59;64.40;101135.23;105413;1260;67388;-66
2023/01/09 09:47:42;;;;;;;9.40;2.60;;;;;;;-1.62;64.70;101138.02;105436;1261;72143;-68
2023/01/09 09:53:42;;;;;;;7.80;3.20;;;;;;;-1.75;65.41;101137.71;102106;1293;600516;-66
2023/01/09 09:56:11;;;;;;;6.90;3.00;;;;;;;-1.63;65.25;101140.26;104419;1279;59312;-66
2023/01/09 09:58:40;;;;;;;13.00;5.20;;;;;;;-1.52;65.22;101136.96;105060;1273;61400;-67
2023/01/09 10:01:07;;;;;;;16.50;4.10;;;;;;;-1.40;65.40;101129.03;104458;1267;74325;-66
2023/01/09 10:03:41;;;;;;;7.20;3.00;;;;;;;-1.31;65.48;101124.89;104433;1266;72541;-66
2023/01/09 10:06:12;;;;;;;7.40;2.80;;;;;;;-1.27;65.45;101130.33;104422;1266;174477;-65
2023/01/09 10:09:16;;;;;;;9.90;2.80;;;;;;;-1.29;65.64;101126.25;104564;1270;60782;-65
2023/01/09 10:11:48;;;;;;;7.40;4.00;;;;;;;-1.31;65.87;101119.38;104526;1269;59282;-66
2023/01/09 10:14:15;;;;;;;12.90;4.40;;;;;;;-1.32;65.90;101118.20;104633;1264;73427;-68
2023/01/09 10:17:35;;;;;;;15.80;3.10;;;;;;;-1.35;66.08;101113.95;104622;1269;72673;-67
2023/01/09 10:20:20;;;;;;;15.00;4.20;;;;;;;-1.38;66.21;101111.61;104681;1263;65962;-67
2023/01/09 10:22:59;;;;;;;10.80;3.90;;;;;;;-1.43;66.33;101112.04;104687;1263;61588;-66
2023/01/09 10:25:35;;;;;;;11.70;4.40;;;;;;;-1.47;66.55;101111.59;104574;1269;62460;-69
2023/01/09 10:28:17;;;;;;;10.00;3.70;;;;;;;-1.48;66.67;101109.89;104546;1264;74224;-67
2023/01/09 10:30:47;;;;;;;10.90;4.50;;;;;;;-1.36;66.86;101109.13;104582;1264;71389;-67
2023/01/09 10:33:45;;;;;;;7.90;3.00;;;;;;;-1.24;66.81;101107.04;104671;1269;73652;-67
2023/01/09 10:36:25;;;;;;;7.60;2.50;;;;;;;-1.14;66.81;101098.92;104954;1263;59804;-67
2023/01/09 10:38:54;;;;;;;9.40;3.50;;;;;;;-1.10;66.80;101096.24;104772;1266;62443;-67
2023/01/09 10:41:33;;;;;;;9.40;3.20;;;;;;;-1.10;66.83;101085.57;104662;1269;74981;-66
2023/01/09 10:44:36;;;;;;;8.00;3.20;;;;;;;-1.10;66.87;101087.13;104673;1269;71175;-67
2023/01/09 10:47:17;;;;;;;6.70;2.20;;;;;;;-1.12;66.87;101080.09;104690;1269;66241;-67
2023/01/09 10:49:47;;;;;;;9.60;3.80;;;;;;;-1.15;67.04;101083.95;104690;1263;61693;-67
2023/01/09 10:52:19;;;;;;;6.60;2.90;;;;;;;-1.18;67.16;101088.14;104545;1263;62184;-66
2023/01/09 10:54:55;;;;;;;7.20;2.90;;;;;;;-1.18;67.34;101086.25;104597;1264;74368;-67
2023/01/09 10:57:40;;;;;;;14.60;4.30;;;;;;;-1.13;67.10;101089.60;104596;1264;72192;-66
2023/01/09 11:00:14;;;;;;;8.00;3.50;;;;;;;-1.03;67.10;101089.23;104720;1264;74549;-67
2023/01/09 11:02:41;;;;;;;9.40;3.20;;;;;;;-0.95;67.19;101081.66;104845;1266;59873;-67
2023/01/09 11:05:13;;;;;;;8.30;2.60;;;;;;;-0.91;67.23;101076.73;104683;1266;61204;-66
2023/01/09 11:07:41;;;;;;;7.60;3.40;;;;;;;-0.93;67.33;101071.27;104756;1267;74976;-66
2023/01/09 11:10:10;;;;;;;9.40;2.90;;;;;;;-0.93;67.51;101070.23;104813;1261;72747;-67
2023/01/09 11:12:38;;;;;;;10.30;3.00;;;;;;;-0.95;67.47;101065.96;104743;1263;74720;-68
2023/01/09 11:15:19;;;;;;;6.00;2.30;;;;;;;-1.00;67.53;101075.22;104777;1261;61407;-66
2023/01/09 11:17:46;;;;;;;8.20;2.90;;;;;;;-1.05;67.65;101076.52;104818;1260;62467;-67
2023/01/09 11:20:15;;;;;;;9.60;4.30;;;;;;;-1.09;67.69;101066.78;104866;1267;75130;-67
2023/01/09 11:22:45;;;;;;;8.20;3.10;;;;;;;-1.15;67.70;101061.56;104813;1261;72133;-68
2023/01/09 11:25:14;;;;;;;8.80;2.10;;;;;;;-1.12;67.65;101065.98;104769;1266;73590;-66
2023/01/09 11:27:41;;;;;;;9.80;2.70;;;;;;;-1.03;67.40;101068.55;104813;1263;63043;-67
2023/01/09 11:30:08;;;;;;;7.60;2.90;;;;;;;-0.94;67.47;101073.02;104731;1266;61161;-66
2023/01/09 11:32:35;;;;;;;7.40;2.90;;;;;;;-0.88;67.43;101074.27;104827;1260;73661;-66
2023/01/09 11:35:32;;;;;;;9.90;3.40;;;;;;;-0.87;67.49;101071.84;104732;1266;71565;-68
2023/01/09 11:38:18;;;;;;;9.40;3.50;;;;;;;-0.87;67.47;101067.70;104867;1263;66200;-67
2023/01/09 11:41:01;;;;;;;11.70;2.80;;;;;;;-0.89;67.40;101070.34;104835;1266;60670;-67
2023/01/09 11:43:37;;;;;;;13.10;4.80;;;;;;;-0.92;67.49;101073.30;104697;1266;62850;-67
2023/01/09 11:46:06;;;;;;;13.70;4.60;;;;;;;-0.93;67.39;101070.94;104804;1265;75008;-67